createdAt,value
2022-11-06T00:01:21.245Z,10.30
2022-11-06T00:03:53.572Z,10.20
2022-11-06T00:06:41.207Z,10.20
2022-11-06T00:09:12.769Z,10.20
2022-11-06T00:11:40.244Z,10.30
2022-11-06T00:14:09.346Z,10.30
2022-11-06T00:16:39.150Z,10.30
2022-11-06T00:19:06.596Z,10.30
2022-11-06T00:21:33.531Z,10.10
2022-11-06T00:24:01.200Z,10.10
2022-11-06T00:26:30.692Z,10.10
2022-11-06T00:28:57.550Z,10.20
2022-11-06T00:31:28.444Z,10.10
2022-11-06T00:33:56.808Z,10.10
2022-11-06T00:36:26.483Z,10.10
2022-11-06T00:38:54.250Z,10.10
2022-11-06T00:41:21.576Z,10.10
2022-11-06T00:43:56.800Z,10.10
2022-11-06T00:46:23.775Z,10.10
2022-11-06T00:48:50.832Z,10.10
2022-11-06T00:51:25.614Z,10.20
2022-11-06T00:54:11.255Z,10.10
2022-11-06T00:56:40.283Z,10.10
2022-11-06T00:59:08.423Z,10.10
2022-11-06T01:01:41.038Z,10.10
2022-11-06T01:04:13.086Z,10.10
2022-11-06T01:06:42.068Z,10.10
2022-11-06T01:09:11.291Z,10.00
2022-11-06T01:12:12.942Z,10.10
2022-11-06T01:14:31.741Z,10.10
2022-11-06T01:16:58.521Z,10.00
2022-11-06T01:19:25.247Z,10.00
2022-11-06T01:21:55.510Z,10.00
2022-11-06T01:24:25.041Z,10.00
2022-11-06T01:27:25.469Z,9.90
2022-11-06T01:29:38.967Z,9.80
2022-11-06T01:32:06.452Z,9.80
2022-11-06T01:34:33.254Z,9.80
2022-11-06T01:37:00.030Z,9.70
2022-11-06T01:39:29.280Z,9.70
2022-11-06T01:41:58.148Z,9.70
2022-11-06T01:44:43.210Z,9.70
2022-11-06T01:47:24.957Z,9.70
2022-11-06T01:49:56.195Z,9.70
2022-11-06T01:52:23.049Z,9.70
2022-11-06T01:54:55.155Z,9.70
2022-11-06T01:57:22.176Z,9.70
2022-11-06T01:59:48.988Z,9.70
2022-11-06T02:02:16.127Z,9.80
2022-11-06T02:04:49.867Z,9.80
2022-11-06T02:07:19.257Z,9.80
2022-11-06T02:09:50.749Z,9.70
2022-11-06T02:12:37.749Z,9.70
2022-11-06T02:15:26.339Z,9.70
2022-11-06T02:17:58.961Z,9.80
2022-11-06T02:20:41.221Z,9.70
2022-11-06T02:23:32.025Z,9.70
2022-11-06T02:26:07.987Z,9.70
2022-11-06T02:28:39.876Z,9.70
2022-11-06T02:31:13.425Z,9.70
2022-11-06T02:33:48.922Z,9.60
2022-11-06T02:36:18.308Z,9.60
2022-11-06T02:38:49.988Z,9.60
2022-11-06T02:41:21.181Z,9.60
2022-11-06T02:43:50.408Z,9.60
2022-11-06T02:46:18.446Z,9.60
2022-11-06T02:48:49.105Z,9.60
2022-11-06T02:51:18.072Z,9.60
2022-11-06T02:53:47.292Z,9.50
2022-11-06T02:56:20.474Z,9.50
2022-11-06T02:58:52.682Z,9.50
2022-11-06T03:01:45.560Z,9.50
2022-11-06T03:04:23.147Z,9.60
2022-11-06T03:06:53.568Z,9.60
2022-11-06T03:09:21.555Z,9.60
2022-11-06T03:11:59.752Z,9.60
2022-11-06T03:15:25.027Z,9.60
2022-11-06T03:18:18.274Z,9.50
2022-11-06T03:21:03.177Z,9.50
2022-11-06T03:23:49.861Z,9.50
2022-11-06T03:26:20.211Z,9.50
2022-11-06T03:29:05.841Z,9.50
2022-11-06T03:31:34.222Z,9.50
2022-11-06T03:34:15.672Z,9.40
2022-11-06T03:36:46.630Z,9.40
2022-11-06T03:39:16.107Z,9.30
2022-11-06T03:41:44.350Z,9.30
2022-11-06T03:44:13.180Z,9.40
2022-11-06T03:46:42.812Z,9.40
2022-11-06T03:49:11.881Z,9.40
2022-11-06T03:51:45.382Z,9.40
2022-11-06T03:54:34.075Z,9.40
2022-11-06T03:57:23.566Z,9.40
2022-11-06T03:59:52.649Z,9.40
2022-11-06T04:02:19.742Z,9.30
2022-11-06T04:04:50.148Z,9.30
2022-11-06T04:07:26.943Z,9.20
2022-11-06T04:10:14.101Z,9.30
2022-11-06T04:12:59.228Z,9.20
2022-11-06T04:15:26.070Z,9.20
2022-11-06T04:17:52.938Z,9.20
2022-11-06T04:20:40.935Z,9.20
2022-11-06T04:23:44.312Z,9.20
2022-11-06T04:26:37.017Z,9.20
2022-11-06T04:29:27.338Z,9.20
2022-11-06T04:32:21.718Z,9.20
2022-11-06T04:35:06.890Z,9.20
2022-11-06T04:37:33.693Z,9.20
2022-11-06T04:40:10.359Z,9.20
2022-11-06T04:43:16.356Z,9.10
2022-11-06T04:45:46.237Z,9.10
2022-11-06T04:48:16.159Z,9.00
2022-11-06T04:50:48.024Z,9.00
2022-11-06T04:53:15.492Z,9.00
2022-11-06T04:55:50.281Z,9.00
2022-11-06T04:58:17.058Z,9.00
2022-11-06T05:00:48.730Z,9.00
2022-11-06T05:03:18.810Z,9.00
2022-11-06T05:05:45.632Z,9.00
2022-11-06T05:08:19.016Z,9.00
2022-11-06T05:10:45.872Z,9.00
2022-11-06T05:13:12.917Z,9.00
2022-11-06T05:15:39.759Z,8.90
2022-11-06T05:18:06.775Z,8.90
2022-11-06T05:20:35.979Z,8.90
2022-11-06T05:23:05.239Z,9.00
2022-11-06T05:25:40.211Z,9.00
2022-11-06T05:28:07.636Z,9.00
2022-11-06T05:30:35.626Z,9.00
2022-11-06T05:33:02.498Z,8.90
2022-11-06T05:35:29.253Z,8.90
2022-11-06T05:38:00.182Z,8.90
2022-11-06T05:40:27.008Z,8.80
2022-11-06T05:42:56.201Z,8.80
2022-11-06T05:45:23.072Z,8.70
2022-11-06T05:47:49.867Z,8.70
2022-11-06T05:50:16.807Z,8.60
2022-11-06T05:52:43.649Z,8.60
2022-11-06T05:55:14.736Z,8.50
2022-11-06T05:57:42.316Z,8.50
2022-11-06T06:00:10.530Z,8.50
2022-11-06T06:02:37.716Z,8.50
2022-11-06T06:05:05.527Z,8.50
2022-11-06T06:07:32.655Z,8.40
2022-11-06T06:09:59.391Z,8.40
2022-11-06T06:12:26.561Z,8.30
2022-11-06T06:14:56.198Z,8.40
2022-11-06T06:17:25.137Z,8.30
2022-11-06T06:19:54.148Z,8.40
2022-11-06T06:22:23.107Z,8.30
2022-11-06T06:24:52.301Z,8.30
2022-11-06T06:27:19.453Z,8.30
2022-11-06T06:29:46.195Z,8.20
2022-11-06T06:32:17.776Z,8.20
2022-11-06T06:34:44.577Z,8.20
2022-11-06T06:37:11.823Z,8.30
2022-11-06T06:39:42.670Z,8.20
2022-11-06T06:42:11.660Z,8.20
2022-11-06T06:44:38.566Z,8.10
2022-11-06T06:47:05.402Z,8.20
2022-11-06T06:49:32.210Z,8.20
2022-11-06T06:51:59.020Z,8.20
2022-11-06T06:54:25.759Z,8.20
2022-11-06T06:56:52.545Z,8.20
2022-11-06T06:59:19.294Z,8.10
2022-11-06T07:01:48.349Z,8.00
2022-11-06T07:04:15.265Z,8.00
2022-11-06T07:06:42.108Z,8.00
2022-11-06T07:09:09.557Z,8.00
2022-11-06T07:11:38.749Z,8.00
2022-11-06T07:14:05.522Z,8.00
2022-11-06T07:16:34.390Z,8.00
2022-11-06T07:19:01.157Z,8.00
2022-11-06T07:21:32.559Z,8.00
2022-11-06T07:23:59.365Z,8.10
2022-11-06T07:26:31.074Z,8.10
2022-11-06T07:28:57.803Z,8.20
2022-11-06T07:31:24.606Z,8.10
2022-11-06T07:33:56.490Z,8.20
2022-11-06T07:36:28.347Z,8.20
2022-11-06T07:38:55.084Z,8.20
2022-11-06T07:41:21.932Z,8.30
2022-11-06T07:43:49.563Z,8.40
2022-11-06T07:46:16.380Z,8.40
2022-11-06T07:48:43.177Z,8.50
2022-11-06T07:51:12.741Z,8.50
2022-11-06T07:53:39.514Z,8.50
2022-11-06T07:56:06.716Z,8.40
2022-11-06T07:58:36.446Z,8.50
2022-11-06T08:01:03.581Z,8.50
2022-11-06T08:03:30.609Z,8.50
2022-11-06T08:05:58.342Z,8.50
2022-11-06T08:08:25.171Z,8.50
2022-11-06T08:10:53.804Z,8.50
2022-11-06T08:13:20.641Z,8.30
2022-11-06T08:15:47.440Z,8.30
2022-11-06T08:18:14.521Z,8.30
2022-11-06T08:20:41.502Z,8.30
2022-11-06T08:23:08.966Z,8.40
2022-11-06T08:25:35.826Z,8.40
2022-11-06T08:28:02.632Z,8.30
2022-11-06T08:30:29.734Z,8.40
2022-11-06T08:32:59.727Z,8.40
2022-11-06T08:35:29.294Z,8.40
2022-11-06T08:37:56.372Z,8.40
2022-11-06T08:40:30.556Z,8.30
2022-11-06T08:43:01.901Z,8.40
2022-11-06T08:45:31.320Z,8.40
2022-11-06T08:48:02.618Z,8.40
2022-11-06T08:50:33.476Z,8.50
2022-11-06T08:53:04.583Z,8.50
2022-11-06T08:55:34.160Z,8.50
2022-11-06T08:58:09.883Z,8.60
2022-11-06T09:00:49.113Z,8.60
2022-11-06T09:03:17.925Z,8.70
2022-11-06T09:05:44.925Z,8.80
2022-11-06T09:08:17.368Z,8.80
2022-11-06T09:10:44.326Z,8.80
2022-11-06T09:13:11.610Z,8.70
2022-11-06T09:15:38.918Z,8.70
2022-11-06T09:18:05.728Z,8.70
2022-11-06T09:20:32.515Z,8.70
2022-11-06T09:23:03.779Z,8.70
2022-11-06T09:25:33.161Z,8.70
2022-11-06T09:28:00.155Z,8.80
2022-11-06T09:30:28.536Z,8.80
2022-11-06T09:32:58.833Z,8.80
2022-11-06T09:35:33.909Z,8.80
2022-11-06T09:38:08.322Z,8.90
2022-11-06T09:40:48.802Z,8.90
2022-11-06T09:44:04.200Z,8.90
2022-11-06T09:46:39.162Z,9.00
2022-11-06T09:49:31.556Z,9.00
2022-11-06T09:52:06.457Z,9.00
2022-11-06T09:54:42.351Z,9.10
2022-11-06T09:57:44.738Z,9.10
2022-11-06T10:00:13.062Z,9.20
2022-11-06T10:02:47.880Z,9.20
2022-11-06T10:05:14.793Z,9.20
2022-11-06T10:07:41.834Z,9.20
2022-11-06T10:10:15.302Z,9.20
2022-11-06T10:12:57.002Z,9.20
2022-11-06T10:15:30.372Z,9.30
2022-11-06T10:18:16.213Z,9.40
2022-11-06T10:20:50.637Z,9.30
2022-11-06T10:23:17.568Z,9.30
2022-11-06T10:25:59.556Z,9.20
2022-11-06T10:29:04.068Z,9.20
2022-11-06T10:31:37.809Z,9.20
2022-11-06T10:34:08.560Z,9.20
2022-11-06T10:36:44.079Z,9.30
2022-11-06T10:39:20.367Z,9.20
2022-11-06T10:41:52.744Z,9.20
2022-11-06T10:44:35.686Z,9.10
2022-11-06T10:47:06.775Z,9.10
2022-11-06T10:49:40.671Z,9.10
2022-11-06T10:52:07.376Z,9.20
2022-11-06T10:54:46.250Z,9.20
2022-11-06T10:57:34.357Z,9.30
2022-11-06T11:00:01.188Z,9.40
2022-11-06T11:02:37.677Z,9.40
2022-11-06T11:05:20.836Z,9.50
2022-11-06T11:07:48.839Z,9.50
2022-11-06T11:10:30.757Z,9.50
2022-11-06T11:13:04.087Z,9.50
2022-11-06T11:15:55.045Z,9.50
2022-11-06T11:18:31.117Z,9.60
2022-11-06T11:21:27.763Z,9.60
2022-11-06T11:24:10.624Z,9.60
2022-11-06T11:26:46.476Z,9.60
2022-11-06T11:29:19.277Z,9.60
2022-11-06T11:31:48.042Z,9.60
2022-11-06T11:34:20.005Z,9.60
2022-11-06T11:37:03.011Z,9.70
2022-11-06T11:39:37.052Z,9.70
2022-11-06T11:42:28.967Z,9.60
2022-11-06T11:45:16.811Z,9.60
2022-11-06T11:47:51.604Z,9.60
2022-11-06T11:50:34.588Z,9.60
2022-11-06T11:53:10.839Z,9.60
2022-11-06T11:55:43.908Z,9.60
2022-11-06T11:58:22.526Z,9.60
2022-11-06T12:00:59.922Z,9.60
2022-11-06T12:03:33.516Z,9.60
2022-11-06T12:06:14.302Z,9.60
2022-11-06T12:08:52.221Z,9.60
2022-11-06T12:11:26.338Z,9.60
2022-11-06T12:14:24.944Z,9.70
2022-11-06T12:16:53.589Z,9.70
2022-11-06T12:19:21.066Z,9.80
2022-11-06T12:21:51.863Z,9.80
2022-11-06T12:24:23.169Z,9.80
2022-11-06T12:26:58.536Z,9.90
2022-11-06T12:29:31.173Z,9.90
2022-11-06T12:32:13.056Z,9.90
2022-11-06T12:34:48.478Z,9.80
2022-11-06T12:37:42.974Z,9.80
2022-11-06T12:40:25.177Z,9.90
2022-11-06T12:43:03.337Z,9.90
2022-11-06T12:45:46.109Z,10.00
2022-11-06T12:48:34.776Z,10.00
2022-11-06T12:51:49.745Z,10.10
2022-11-06T12:54:37.696Z,10.10
2022-11-06T12:57:31.465Z,10.20
2022-11-06T13:00:20.844Z,10.20
2022-11-06T13:03:09.440Z,10.30
2022-11-06T13:05:41.298Z,10.20
2022-11-06T13:08:36.118Z,10.30
2022-11-06T13:11:41.036Z,10.30
2022-11-06T13:14:19.669Z,10.30
2022-11-06T13:16:52.372Z,10.20
2022-11-06T13:19:43.982Z,10.30
2022-11-06T13:22:29.306Z,10.30
2022-11-06T13:25:05.922Z,10.30
2022-11-06T13:27:59.483Z,10.40
2022-11-06T13:30:28.879Z,10.40
2022-11-06T13:33:24.666Z,10.40
2022-11-06T13:35:51.460Z,10.40
2022-11-06T13:38:35.107Z,10.40
2022-11-06T13:41:07.916Z,10.40
2022-11-06T13:43:45.999Z,10.40
2022-11-06T13:46:49.559Z,10.40
2022-11-06T13:49:37.901Z,10.40
2022-11-06T13:52:16.780Z,10.50
2022-11-06T13:54:59.807Z,10.50
2022-11-06T13:57:48.471Z,10.50
2022-11-06T14:00:36.792Z,10.50
2022-11-06T14:03:09.402Z,10.40
2022-11-06T14:05:55.893Z,10.40
2022-11-06T14:08:44.923Z,10.50
2022-11-06T14:11:13.287Z,10.50
2022-11-06T14:13:40.077Z,10.60
2022-11-06T14:16:22.206Z,10.60
2022-11-06T14:19:11.535Z,10.60
2022-11-06T14:21:48.113Z,10.60
2022-11-06T14:24:26.981Z,10.60
2022-11-06T14:26:53.784Z,10.60
2022-11-06T14:29:26.936Z,10.60
2022-11-06T14:32:11.989Z,10.50
2022-11-06T14:34:42.876Z,10.50
2022-11-06T14:37:18.695Z,10.50
2022-11-06T14:39:51.233Z,10.50
2022-11-06T14:42:22.915Z,10.50
2022-11-06T14:44:57.350Z,10.40
2022-11-06T14:47:25.543Z,10.40
2022-11-06T14:49:54.004Z,10.40
2022-11-06T14:52:24.380Z,10.40
2022-11-06T14:54:54.824Z,10.40
2022-11-06T14:57:42.438Z,10.40
2022-11-06T15:00:13.588Z,10.40
2022-11-06T15:02:40.430Z,10.30
2022-11-06T15:05:08.587Z,10.30
2022-11-06T15:08:03.887Z,10.30
2022-11-06T15:10:45.407Z,10.30
2022-11-06T15:13:25.373Z,10.30
2022-11-06T15:16:01.200Z,10.20
2022-11-06T15:18:33.012Z,10.20
2022-11-06T15:21:04.875Z,10.20
2022-11-06T15:24:02.819Z,10.10
2022-11-06T15:26:45.654Z,10.10
2022-11-06T15:29:20.370Z,10.10
2022-11-06T15:31:49.143Z,10.00
2022-11-06T15:34:55.802Z,10.10
2022-11-06T15:37:27.159Z,10.10
2022-11-06T15:40:00.187Z,10.10
2022-11-06T15:42:37.288Z,10.10
2022-11-06T15:45:16.804Z,10.10
2022-11-06T15:48:06.540Z,10.00
2022-11-06T15:50:34.510Z,10.00
2022-11-06T15:53:14.088Z,10.00
2022-11-06T15:55:58.815Z,10.00
2022-11-06T15:58:31.548Z,10.00
2022-11-06T16:01:01.829Z,10.00
2022-11-06T16:03:32.453Z,9.90
2022-11-06T16:06:03.878Z,10.00
2022-11-06T16:08:33.170Z,10.00
2022-11-06T16:11:00.169Z,10.00
2022-11-06T16:13:26.937Z,10.00
2022-11-06T16:16:03.147Z,10.00
2022-11-06T16:18:41.326Z,10.00
2022-11-06T16:21:12.216Z,10.00
2022-11-06T16:24:06.981Z,10.00
2022-11-06T16:26:35.622Z,10.00
2022-11-06T16:29:05.684Z,10.00
2022-11-06T16:31:32.525Z,10.00
2022-11-06T16:34:04.823Z,9.90
2022-11-06T16:36:48.508Z,9.90
2022-11-06T16:39:18.290Z,9.90
2022-11-06T16:42:06.688Z,9.90
2022-11-06T16:44:36.473Z,9.80
2022-11-06T16:47:19.802Z,9.80
2022-11-06T16:49:55.895Z,9.80
2022-11-06T16:52:35.725Z,9.80
2022-11-06T16:55:03.947Z,9.80
2022-11-06T16:57:36.475Z,9.80
2022-11-06T17:00:11.930Z,9.80
2022-11-06T17:02:40.891Z,9.70
2022-11-06T17:05:15.244Z,9.70
2022-11-06T17:07:42.272Z,9.70
2022-11-06T17:10:41.941Z,9.70
2022-11-06T17:13:22.414Z,9.70
2022-11-06T17:15:52.857Z,9.70
2022-11-06T17:18:24.416Z,9.70
2022-11-06T17:20:53.479Z,9.70
2022-11-06T17:23:21.758Z,9.70
2022-11-06T17:25:50.981Z,9.70
2022-11-06T17:28:18.961Z,9.70
2022-11-06T17:30:46.949Z,9.60
2022-11-06T17:33:14.033Z,9.60
2022-11-06T17:35:41.386Z,9.60
2022-11-06T17:38:08.272Z,9.60
2022-11-06T17:40:35.193Z,9.60
2022-11-06T17:43:01.921Z,9.60
2022-11-06T17:45:28.714Z,9.50
2022-11-06T17:47:57.585Z,9.50
2022-11-06T17:50:24.350Z,9.50
2022-11-06T17:52:53.545Z,9.50
2022-11-06T17:55:20.302Z,9.50
2022-11-06T17:57:49.558Z,9.50
2022-11-06T18:00:20.803Z,9.50
2022-11-06T18:03:01.134Z,9.50
2022-11-06T18:05:28.901Z,9.50
2022-11-06T18:07:55.659Z,9.50
2022-11-06T18:10:27.424Z,9.40
2022-11-06T18:12:56.865Z,9.40
2022-11-06T18:15:25.841Z,9.40
2022-11-06T18:17:52.682Z,9.40
2022-11-06T18:20:21.709Z,9.40
2022-11-06T18:22:48.485Z,9.40
2022-11-06T18:25:15.286Z,9.40
2022-11-06T18:27:42.126Z,9.40
2022-11-06T18:30:09.579Z,9.40
2022-11-06T18:32:36.329Z,9.40
2022-11-06T18:35:05.492Z,9.40
2022-11-06T18:37:34.735Z,9.40
2022-11-06T18:40:01.496Z,9.30
2022-11-06T18:42:30.724Z,9.30
2022-11-06T18:44:57.472Z,9.30
2022-11-06T18:47:26.415Z,9.30
2022-11-06T18:49:55.378Z,9.30
2022-11-06T18:52:44.352Z,9.30
2022-11-06T18:55:09.327Z,9.30
2022-11-06T18:57:38.325Z,9.30
2022-11-06T19:00:07.895Z,9.30
2022-11-06T19:02:36.917Z,9.20
2022-11-06T19:05:04.151Z,9.20
2022-11-06T19:07:30.997Z,9.20
2022-11-06T19:10:00.237Z,9.20
2022-11-06T19:12:29.563Z,9.10
2022-11-06T19:14:56.529Z,9.10
2022-11-06T19:17:23.278Z,9.10
2022-11-06T19:19:50.236Z,9.10
2022-11-06T19:22:17.099Z,9.00
2022-11-06T19:24:43.932Z,9.00
2022-11-06T19:27:13.237Z,9.00
2022-11-06T19:29:42.225Z,9.00
2022-11-06T19:32:09.005Z,9.00
2022-11-06T19:34:39.473Z,8.90
2022-11-06T19:37:06.566Z,8.90
2022-11-06T19:39:36.919Z,8.90
2022-11-06T19:42:03.931Z,8.90
2022-11-06T19:44:30.748Z,8.90
2022-11-06T19:46:59.848Z,8.90
2022-11-06T19:49:28.951Z,8.80
2022-11-06T19:51:58.264Z,8.90
2022-11-06T19:54:45.010Z,8.80
2022-11-06T19:57:27.562Z,8.80
2022-11-06T19:59:56.646Z,8.80
2022-11-06T20:02:23.514Z,8.80
2022-11-06T20:04:50.462Z,8.80
2022-11-06T20:07:19.398Z,8.80
2022-11-06T20:09:46.148Z,8.80
2022-11-06T20:12:14.055Z,8.80
2022-11-06T20:14:40.856Z,8.70
2022-11-06T20:17:12.044Z,8.80
2022-11-06T20:19:38.904Z,8.70
2022-11-06T20:22:05.731Z,8.70
2022-11-06T20:24:32.554Z,8.70
2022-11-06T20:26:59.342Z,8.70
2022-11-06T20:29:27.596Z,8.70
2022-11-06T20:31:54.446Z,8.70
2022-11-06T20:34:21.217Z,8.70
2022-11-06T20:36:50.469Z,8.70
2022-11-06T20:39:17.248Z,8.70
2022-11-06T20:41:44.310Z,8.70
2022-11-06T20:44:11.144Z,8.70
2022-11-06T20:46:37.951Z,8.70
2022-11-06T20:49:06.867Z,8.70
2022-11-06T20:51:42.921Z,8.70
2022-11-06T20:54:20.562Z,8.60
2022-11-06T20:56:48.501Z,8.60
2022-11-06T20:59:16.112Z,8.60
2022-11-06T21:01:43.181Z,8.60
2022-11-06T21:04:11.500Z,8.60
2022-11-06T21:06:43.745Z,8.60
2022-11-06T21:09:13.181Z,8.60
2022-11-06T21:11:39.918Z,8.60
2022-11-06T21:14:06.699Z,8.50
2022-11-06T21:16:34.727Z,8.50
2022-11-06T21:19:04.768Z,8.50
2022-11-06T21:21:33.261Z,8.50
2022-11-06T21:24:02.911Z,8.50
2022-11-06T21:26:33.663Z,8.50
2022-11-06T21:29:04.718Z,8.50
2022-11-06T21:31:34.983Z,8.50
2022-11-06T21:34:03.467Z,8.50
2022-11-06T21:36:31.985Z,8.50
2022-11-06T21:39:00.563Z,8.40
2022-11-06T21:41:28.594Z,8.40
2022-11-06T21:43:55.982Z,8.30
2022-11-06T21:46:22.781Z,8.30
2022-11-06T21:48:52.451Z,8.30
2022-11-06T21:51:24.607Z,8.30
2022-11-06T21:54:10.295Z,8.30
2022-11-06T21:56:37.543Z,8.30
2022-11-06T21:59:07.593Z,8.30
2022-11-06T22:01:34.484Z,8.30
2022-11-06T22:04:01.341Z,8.20
2022-11-06T22:06:28.429Z,8.20
2022-11-06T22:08:56.509Z,8.20
2022-11-06T22:11:33.561Z,8.20
2022-11-06T22:14:01.923Z,8.20
2022-11-06T22:16:39.001Z,8.20
2022-11-06T22:19:08.772Z,8.20
2022-11-06T22:21:38.938Z,8.10
2022-11-06T22:24:07.153Z,8.10
2022-11-06T22:26:36.625Z,8.10
2022-11-06T22:29:09.280Z,8.10
2022-11-06T22:31:38.684Z,8.10
2022-11-06T22:34:05.498Z,8.10
2022-11-06T22:36:32.520Z,8.10
2022-11-06T22:39:00.694Z,8.10
2022-11-06T22:41:27.529Z,8.10
2022-11-06T22:44:00.280Z,8.10
2022-11-06T22:46:27.334Z,8.10
2022-11-06T22:48:54.466Z,8.10
2022-11-06T22:51:23.569Z,8.10
2022-11-06T22:53:50.557Z,8.10
2022-11-06T22:56:20.526Z,8.10
2022-11-06T22:58:49.743Z,8.20
2022-11-06T23:01:19.844Z,8.20
2022-11-06T23:03:46.603Z,8.20
2022-11-06T23:06:13.521Z,8.20
2022-11-06T23:08:46.714Z,8.10
2022-11-06T23:11:14.372Z,8.10
2022-11-06T23:13:41.224Z,8.10
2022-11-06T23:16:11.086Z,8.10
2022-11-06T23:18:40.143Z,8.00
2022-11-06T23:21:14.292Z,8.00
2022-11-06T23:23:42.349Z,8.00
2022-11-06T23:26:16.397Z,8.00
2022-11-06T23:28:46.140Z,8.00
2022-11-06T23:31:16.533Z,8.00
2022-11-06T23:33:43.555Z,7.90
2022-11-06T23:36:12.243Z,7.90
2022-11-06T23:38:39.058Z,7.90
2022-11-06T23:41:29.119Z,7.80
2022-11-06T23:43:56.143Z,7.80
2022-11-06T23:46:24.567Z,7.80
2022-11-06T23:48:51.396Z,7.70
2022-11-06T23:51:18.415Z,7.70
2022-11-06T23:53:45.382Z,7.70
2022-11-06T23:56:12.475Z,7.70
2022-11-06T23:58:42.169Z,7.70
